createdAt,value
2018-05-07T00:00:25.310Z,1006.9
2018-05-07T00:01:26.745Z,1006.8
2018-05-07T00:02:28.035Z,1006.8
2018-05-07T00:03:29.464Z,1006.8
2018-05-07T00:04:30.742Z,1006.9
2018-05-07T00:05:32.103Z,1006.9
2018-05-07T00:06:33.464Z,1006.8
2018-05-07T00:07:34.817Z,1006.8
2018-05-07T00:08:36.180Z,1006.8
2018-05-07T00:09:37.535Z,1006.8
2018-05-07T00:10:38.893Z,1006.8
2018-05-07T00:11:40.267Z,1006.8
2018-05-07T00:12:41.626Z,1006.7
2018-05-07T00:13:42.972Z,1006.7
2018-05-07T00:14:44.367Z,1006.7
2018-05-07T00:15:45.746Z,1006.7
2018-05-07T00:16:47.081Z,1006.7
2018-05-07T00:17:48.445Z,1006.6
2018-05-07T00:18:49.810Z,1006.7
2018-05-07T00:19:51.150Z,1006.7
2018-05-07T00:20:53.281Z,1006.7
2018-05-07T00:21:54.652Z,1006.7
2018-05-07T00:22:56.007Z,1006.7
2018-05-07T00:23:57.365Z,1006.7
2018-05-07T00:24:58.723Z,1006.7
2018-05-07T00:26:00.088Z,1006.7
2018-05-07T00:27:01.444Z,1006.7
2018-05-07T00:28:02.808Z,1006.7
2018-05-07T00:29:04.166Z,1006.6
2018-05-07T00:30:05.521Z,1006.7
2018-05-07T00:31:06.945Z,1006.7
2018-05-07T00:32:08.306Z,1006.7
2018-05-07T00:33:09.691Z,1006.7
2018-05-07T00:34:11.023Z,1006.7
2018-05-07T00:35:12.386Z,1006.7
2018-05-07T00:36:13.739Z,1006.7
2018-05-07T00:37:15.111Z,1006.8
2018-05-07T00:38:16.466Z,1006.8
2018-05-07T00:39:17.825Z,1006.7
2018-05-07T00:40:19.182Z,1006.7
2018-05-07T00:41:20.537Z,1006.8
2018-05-07T00:42:21.901Z,1006.8
2018-05-07T00:43:23.255Z,1006.7
2018-05-07T00:44:24.612Z,1006.7
2018-05-07T00:45:26.021Z,1006.7
2018-05-07T00:46:27.379Z,1006.7
2018-05-07T00:47:28.735Z,1006.8
2018-05-07T00:48:30.096Z,1006.8
2018-05-07T00:49:31.448Z,1006.8
2018-05-07T00:50:32.894Z,1006.8
2018-05-07T00:51:34.128Z,1006.8
2018-05-07T00:52:35.490Z,1006.8
2018-05-07T00:53:36.837Z,1006.8
2018-05-07T00:54:38.191Z,1006.7
2018-05-07T00:55:39.554Z,1006.8
2018-05-07T00:56:40.987Z,1006.8
2018-05-07T00:57:42.229Z,1006.8
2018-05-07T00:58:43.589Z,1006.8
2018-05-07T00:59:44.951Z,1006.8
2018-05-07T01:00:46.309Z,1006.8
2018-05-07T01:01:47.654Z,1006.7
2018-05-07T01:02:49.019Z,1006.8
2018-05-07T01:03:50.380Z,1006.8
2018-05-07T01:04:51.734Z,1006.8
2018-05-07T01:05:53.094Z,1006.8
2018-05-07T01:06:54.445Z,1006.8
2018-05-07T01:07:55.803Z,1006.8
2018-05-07T01:08:57.161Z,1006.8
2018-05-07T01:09:58.511Z,1006.8
2018-05-07T01:10:59.883Z,1006.8
2018-05-07T01:12:01.233Z,1006.9
2018-05-07T01:13:02.546Z,1006.8
2018-05-07T01:14:03.908Z,1006.8
2018-05-07T01:15:05.766Z,1006.8
2018-05-07T01:16:07.131Z,1006.9
2018-05-07T01:17:08.501Z,1006.8
2018-05-07T01:18:09.882Z,1006.8
2018-05-07T01:19:11.236Z,1006.8
2018-05-07T01:20:12.612Z,1006.8
2018-05-07T01:21:13.975Z,1006.8
2018-05-07T01:22:15.332Z,1006.8
2018-05-07T01:23:16.725Z,1006.8
2018-05-07T01:24:18.094Z,1006.8
2018-05-07T01:25:19.445Z,1006.9
2018-05-07T01:26:20.804Z,1006.8
2018-05-07T01:27:22.159Z,1006.9
2018-05-07T01:28:23.517Z,1006.9
2018-05-07T01:29:24.874Z,1006.8
2018-05-07T01:30:26.231Z,1006.8
2018-05-07T01:31:27.591Z,1006.9
2018-05-07T01:32:28.949Z,1006.8
2018-05-07T01:33:30.306Z,1006.8
2018-05-07T01:34:31.674Z,1006.8
2018-05-07T01:35:33.053Z,1006.8
2018-05-07T01:36:34.406Z,1006.7
2018-05-07T01:37:35.768Z,1006.8
2018-05-07T01:38:37.123Z,1006.7
2018-05-07T01:39:38.487Z,1006.8
2018-05-07T01:40:39.841Z,1006.7
2018-05-07T01:41:41.197Z,1006.7
2018-05-07T01:42:42.552Z,1006.7
2018-05-07T01:43:43.916Z,1006.7
2018-05-07T01:44:45.266Z,1006.7
2018-05-07T01:45:46.628Z,1006.7
2018-05-07T01:46:47.989Z,1006.7
2018-05-07T01:47:49.341Z,1006.7
2018-05-07T01:48:50.692Z,1006.7
2018-05-07T01:49:52.100Z,1006.7
2018-05-07T01:50:53.455Z,1006.6
2018-05-07T01:51:54.813Z,1006.7
2018-05-07T01:52:56.175Z,1006.6
2018-05-07T01:53:57.532Z,1006.6
2018-05-07T01:54:58.889Z,1006.6
2018-05-07T01:56:00.246Z,1006.6
2018-05-07T01:57:01.601Z,1006.6
2018-05-07T01:58:02.972Z,1006.6
2018-05-07T01:59:04.325Z,1006.7
2018-05-07T02:00:06.170Z,1006.6
2018-05-07T02:01:07.532Z,1006.6
2018-05-07T02:02:08.887Z,1006.6
2018-05-07T02:03:10.249Z,1006.6
2018-05-07T02:04:11.614Z,1006.6
2018-05-07T02:05:12.969Z,1006.5
2018-05-07T02:06:14.317Z,1006.5
2018-05-07T02:07:15.674Z,1006.5
2018-05-07T02:08:17.033Z,1006.5
2018-05-07T02:09:18.382Z,1006.5
2018-05-07T02:10:19.736Z,1006.5
2018-05-07T02:11:21.095Z,1006.5
2018-05-07T02:12:22.465Z,1006.5
2018-05-07T02:13:23.817Z,1006.4
2018-05-07T02:14:25.176Z,1006.4
2018-05-07T02:15:26.532Z,1006.4
2018-05-07T02:16:27.883Z,1006.4
2018-05-07T02:17:29.240Z,1006.4
2018-05-07T02:18:30.595Z,1006.3
2018-05-07T02:19:31.953Z,1006.3
2018-05-07T02:20:33.308Z,1006.3
2018-05-07T02:21:34.684Z,1006.3
2018-05-07T02:22:36.045Z,1006.3
2018-05-07T02:23:37.411Z,1006.3
2018-05-07T02:24:38.768Z,1006.2
2018-05-07T02:25:40.123Z,1006.3
2018-05-07T02:26:41.472Z,1006.2
2018-05-07T02:27:42.827Z,1006.2
2018-05-07T02:28:44.302Z,1006.2
2018-05-07T02:29:45.663Z,1006.2
2018-05-07T02:30:47.011Z,1006.1
2018-05-07T02:31:48.366Z,1006.1
2018-05-07T02:32:49.739Z,1006.2
2018-05-07T02:33:51.094Z,1006.2
2018-05-07T02:34:52.447Z,1006.1
2018-05-07T02:35:53.804Z,1006.1
2018-05-07T02:36:55.164Z,1006.1
2018-05-07T02:37:56.515Z,1006.0
2018-05-07T02:38:57.905Z,1006.0
2018-05-07T02:39:59.224Z,1006.1
2018-05-07T02:41:00.597Z,1006.1
2018-05-07T02:42:01.952Z,1006.0
2018-05-07T02:43:03.326Z,1006.0
2018-05-07T02:44:04.686Z,1006.0
2018-05-07T02:45:06.044Z,1006.1
2018-05-07T02:46:07.405Z,1006.1
2018-05-07T02:47:08.757Z,1006.0
2018-05-07T02:48:10.150Z,1006.0
2018-05-07T02:49:11.503Z,1006.0
2018-05-07T02:50:12.870Z,1006.0
2018-05-07T02:51:14.233Z,1006.0
2018-05-07T02:52:15.676Z,1006.0
2018-05-07T02:53:16.948Z,1005.9
2018-05-07T02:54:18.313Z,1006.0
2018-05-07T02:55:19.674Z,1006.0
2018-05-07T02:56:21.056Z,1006.0
2018-05-07T02:57:22.411Z,1005.9
2018-05-07T02:58:23.793Z,1005.9
2018-05-07T02:59:25.155Z,1006.0
2018-05-07T03:00:26.514Z,1005.9
2018-05-07T03:01:27.864Z,1005.9
2018-05-07T03:02:29.221Z,1005.9
2018-05-07T03:03:30.570Z,1005.9
2018-05-07T03:04:31.928Z,1005.9
2018-05-07T03:05:33.292Z,1005.9
2018-05-07T03:06:34.643Z,1005.9
2018-05-07T03:07:35.997Z,1005.9
2018-05-07T03:08:37.360Z,1005.9
2018-05-07T03:09:38.711Z,1005.9
2018-05-07T03:10:40.077Z,1005.9
2018-05-07T03:11:41.429Z,1005.9
2018-05-07T03:12:42.791Z,1005.9
2018-05-07T03:13:44.149Z,1005.9
2018-05-07T03:14:45.516Z,1005.9
2018-05-07T03:15:46.877Z,1005.9
2018-05-07T03:16:48.236Z,1005.8
2018-05-07T03:17:49.595Z,1005.9
2018-05-07T03:18:50.960Z,1005.8
2018-05-07T03:19:52.314Z,1005.8
2018-05-07T03:20:53.668Z,1005.8
2018-05-07T03:21:55.024Z,1005.8
2018-05-07T03:22:56.384Z,1005.8
2018-05-07T03:23:57.742Z,1005.7
2018-05-07T03:24:59.105Z,1005.7
2018-05-07T03:26:00.466Z,1005.7
2018-05-07T03:27:01.827Z,1005.7
2018-05-07T03:28:03.188Z,1005.7
2018-05-07T03:29:04.545Z,1005.7
2018-05-07T03:30:06.530Z,1005.8
2018-05-07T03:31:07.876Z,1005.8
2018-05-07T03:32:09.232Z,1005.8
2018-05-07T03:33:10.594Z,1005.8
2018-05-07T03:34:11.955Z,1005.8
2018-05-07T03:35:13.313Z,1005.8
2018-05-07T03:36:14.668Z,1005.8
2018-05-07T03:37:16.023Z,1005.7
2018-05-07T03:38:17.387Z,1005.8
2018-05-07T03:39:18.736Z,1005.8
2018-05-07T03:40:20.099Z,1005.8
2018-05-07T03:41:21.463Z,1005.7
2018-05-07T03:42:22.841Z,1005.8
2018-05-07T03:43:24.203Z,1005.8
2018-05-07T03:44:25.568Z,1005.8
2018-05-07T03:45:26.943Z,1005.8
2018-05-07T03:46:28.297Z,1005.9
2018-05-07T03:47:29.654Z,1005.9
2018-05-07T03:48:31.015Z,1005.9
2018-05-07T03:49:32.370Z,1005.8
2018-05-07T03:50:33.759Z,1005.9
2018-05-07T03:51:35.123Z,1005.9
2018-05-07T03:52:36.495Z,1005.9
2018-05-07T03:53:37.884Z,1005.8
2018-05-07T03:54:39.238Z,1005.9
2018-05-07T03:55:40.602Z,1005.8
2018-05-07T03:56:41.960Z,1005.8
2018-05-07T03:57:43.333Z,1005.8
2018-05-07T03:58:44.699Z,1005.8
2018-05-07T03:59:46.140Z,1005.9
2018-05-07T04:00:47.440Z,1005.9
2018-05-07T04:01:48.796Z,1005.8
2018-05-07T04:02:50.160Z,1005.9
2018-05-07T04:03:51.532Z,1005.9
2018-05-07T04:04:56.303Z,1005.9
2018-05-07T04:05:57.666Z,1005.8
2018-05-07T04:06:59.045Z,1005.9
2018-05-07T04:08:00.396Z,1005.8
2018-05-07T04:09:01.775Z,1005.9
2018-05-07T04:10:03.142Z,1005.8
2018-05-07T04:11:04.491Z,1005.8
2018-05-07T04:12:05.852Z,1005.8
2018-05-07T04:13:07.213Z,1005.8
2018-05-07T04:14:08.588Z,1005.8
2018-05-07T04:15:09.949Z,1005.8
2018-05-07T04:16:11.313Z,1005.8
2018-05-07T04:17:12.678Z,1005.8
2018-05-07T04:18:14.031Z,1005.8
2018-05-07T04:19:15.393Z,1005.8
2018-05-07T04:20:16.756Z,1005.8
2018-05-07T04:21:18.119Z,1005.8
2018-05-07T04:22:19.493Z,1005.8
2018-05-07T04:23:20.841Z,1005.8
2018-05-07T04:24:22.207Z,1005.8
2018-05-07T04:25:23.569Z,1005.8
2018-05-07T04:26:24.929Z,1005.8
2018-05-07T04:27:26.286Z,1005.9
2018-05-07T04:28:27.656Z,1005.8
2018-05-07T04:29:29.031Z,1005.8
2018-05-07T04:30:30.385Z,1005.9
2018-05-07T04:31:31.774Z,1005.8
2018-05-07T04:32:33.132Z,1005.9
2018-05-07T04:33:34.490Z,1005.9
2018-05-07T04:34:35.852Z,1005.9
2018-05-07T04:35:37.217Z,1005.9
2018-05-07T04:36:38.583Z,1005.9
2018-05-07T04:37:40.000Z,1005.9
2018-05-07T04:38:41.366Z,1005.9
2018-05-07T04:39:42.731Z,1005.9
2018-05-07T04:40:44.090Z,1005.9
2018-05-07T04:41:45.441Z,1006.0
2018-05-07T04:42:46.808Z,1006.0
2018-05-07T04:43:48.166Z,1006.0
2018-05-07T04:44:49.528Z,1006.0
2018-05-07T04:45:50.904Z,1006.0
2018-05-07T04:46:52.264Z,1006.0
2018-05-07T04:47:53.640Z,1006.0
2018-05-07T04:48:55.057Z,1006.0
2018-05-07T04:49:56.370Z,1006.0
2018-05-07T04:50:57.725Z,1006.0
2018-05-07T04:51:59.089Z,1006.0
2018-05-07T04:53:00.450Z,1006.0
2018-05-07T04:54:01.816Z,1006.1
2018-05-07T04:55:03.183Z,1006.1
2018-05-07T04:56:04.543Z,1006.1
2018-05-07T04:57:05.908Z,1006.0
2018-05-07T04:58:07.278Z,1006.1
2018-05-07T04:59:08.644Z,1006.1
2018-05-07T05:00:10.016Z,1006.1
2018-05-07T05:01:11.377Z,1006.2
2018-05-07T05:02:12.746Z,1006.1
2018-05-07T05:03:14.125Z,1006.1
2018-05-07T05:04:15.480Z,1006.1
2018-05-07T05:05:16.851Z,1006.1
2018-05-07T05:06:18.224Z,1006.2
2018-05-07T05:07:19.577Z,1006.1
2018-05-07T05:08:20.950Z,1006.1
2018-05-07T05:09:22.316Z,1006.1
2018-05-07T05:10:23.675Z,1006.1
2018-05-07T05:11:25.033Z,1006.1
2018-05-07T05:12:26.407Z,1006.1
2018-05-07T05:13:27.772Z,1006.1
2018-05-07T05:14:29.138Z,1006.1
2018-05-07T05:15:30.497Z,1006.1
2018-05-07T05:16:31.870Z,1006.1
2018-05-07T05:17:33.231Z,1006.2
2018-05-07T05:18:34.599Z,1006.2
2018-05-07T05:19:35.971Z,1006.2
2018-05-07T05:20:37.338Z,1006.2
2018-05-07T05:21:38.710Z,1006.2
2018-05-07T05:22:40.078Z,1006.2
2018-05-07T05:23:41.493Z,1006.2
2018-05-07T05:24:42.853Z,1006.3
2018-05-07T05:25:44.221Z,1006.2
2018-05-07T05:26:45.582Z,1006.2
2018-05-07T05:27:46.988Z,1006.3
2018-05-07T05:28:48.376Z,1006.2
2018-05-07T05:29:49.742Z,1006.2
2018-05-07T05:30:51.107Z,1006.3
2018-05-07T05:31:52.480Z,1006.2
2018-05-07T05:32:53.852Z,1006.3
2018-05-07T05:33:55.220Z,1006.3
2018-05-07T05:34:56.581Z,1006.2
2018-05-07T05:35:57.956Z,1006.3
2018-05-07T05:36:59.323Z,1006.3
2018-05-07T05:38:00.685Z,1006.3
2018-05-07T05:39:02.052Z,1006.3
2018-05-07T05:40:03.415Z,1006.3
2018-05-07T05:41:04.774Z,1006.3
2018-05-07T05:42:06.167Z,1006.3
2018-05-07T05:43:07.627Z,1006.3
2018-05-07T05:44:08.859Z,1006.3
2018-05-07T05:45:10.217Z,1006.3
2018-05-07T05:46:11.584Z,1006.3
2018-05-07T05:47:12.945Z,1006.3
2018-05-07T05:48:14.301Z,1006.3
2018-05-07T05:49:15.669Z,1006.3
2018-05-07T05:50:17.088Z,1006.3
2018-05-07T05:51:18.390Z,1006.3
2018-05-07T05:52:19.749Z,1006.3
2018-05-07T05:53:21.116Z,1006.4
2018-05-07T05:54:22.483Z,1006.4
2018-05-07T05:55:23.850Z,1006.4
2018-05-07T05:56:25.235Z,1006.4
2018-05-07T05:57:26.582Z,1006.5
2018-05-07T05:58:27.952Z,1006.6
2018-05-07T05:59:29.314Z,1006.9
2018-05-07T06:00:30.716Z,1006.9
2018-05-07T06:01:32.122Z,1006.8
2018-05-07T06:02:33.491Z,1006.9
2018-05-07T06:03:34.975Z,1006.8
2018-05-07T06:04:36.345Z,1006.9
2018-05-07T06:05:37.709Z,1006.8
2018-05-07T06:06:39.070Z,1006.9
2018-05-07T06:07:40.440Z,1006.8
2018-05-07T06:08:41.822Z,1006.9
2018-05-07T06:09:43.189Z,1006.9
2018-05-07T06:10:44.558Z,1006.8
2018-05-07T06:11:45.935Z,1006.8
2018-05-07T06:12:47.310Z,1006.7
2018-05-07T06:13:48.674Z,1006.8
2018-05-07T06:14:50.181Z,1006.8
2018-05-07T06:15:51.465Z,1006.8
2018-05-07T06:16:52.833Z,1006.9
2018-05-07T06:17:54.204Z,1006.9
2018-05-07T06:18:55.573Z,1006.7
2018-05-07T06:19:56.948Z,1006.8
2018-05-07T06:20:58.316Z,1006.9
2018-05-07T06:21:59.689Z,1006.9
2018-05-07T06:23:01.066Z,1006.9
2018-05-07T06:24:02.436Z,1006.9
2018-05-07T06:25:03.824Z,1006.9
2018-05-07T06:26:05.200Z,1006.9
2018-05-07T06:27:06.573Z,1006.7
2018-05-07T06:28:07.947Z,1006.8
2018-05-07T06:29:09.321Z,1006.9
2018-05-07T06:30:10.706Z,1006.9
2018-05-07T06:31:12.087Z,1007.0
2018-05-07T06:32:13.467Z,1007.0
2018-05-07T06:33:14.827Z,1007.0
2018-05-07T06:34:16.281Z,1007.0
2018-05-07T06:35:17.533Z,1007.0
2018-05-07T06:36:18.905Z,1007.0
2018-05-07T06:37:20.288Z,1006.9
2018-05-07T06:38:21.673Z,1007.0
2018-05-07T06:39:23.052Z,1006.9
2018-05-07T06:40:24.461Z,1007.1
2018-05-07T06:41:25.829Z,1007.1
2018-05-07T06:42:27.211Z,1007.1
2018-05-07T06:43:28.587Z,1007.1
2018-05-07T06:44:29.969Z,1007.1
2018-05-07T06:45:31.344Z,1007.1
2018-05-07T06:46:32.729Z,1007.2
2018-05-07T06:47:34.119Z,1007.2
2018-05-07T06:48:35.496Z,1007.1
2018-05-07T06:49:36.871Z,1007.0
2018-05-07T06:50:38.242Z,1007.1
2018-05-07T06:51:39.618Z,1007.2
2018-05-07T06:52:41.057Z,1007.2
2018-05-07T06:53:42.436Z,1007.2
2018-05-07T06:54:43.815Z,1007.3
2018-05-07T06:55:45.206Z,1007.3
2018-05-07T06:56:46.591Z,1007.2
2018-05-07T06:57:47.970Z,1007.2
2018-05-07T06:58:49.343Z,1007.2
2018-05-07T06:59:50.720Z,1007.3
2018-05-07T07:00:52.099Z,1007.3
2018-05-07T07:01:53.475Z,1007.2
2018-05-07T07:02:54.997Z,1007.2
2018-05-07T07:03:56.271Z,1007.1
2018-05-07T07:04:57.646Z,1007.2
2018-05-07T07:05:59.048Z,1007.2
2018-05-07T07:07:00.429Z,1007.3
2018-05-07T07:08:01.864Z,1007.3
2018-05-07T07:09:03.159Z,1007.2
2018-05-07T07:10:04.539Z,1007.2
2018-05-07T07:11:05.920Z,1007.2
2018-05-07T07:12:07.287Z,1007.3
2018-05-07T07:13:08.676Z,1007.1
2018-05-07T07:14:10.066Z,1007.1
2018-05-07T07:15:11.445Z,1007.1
2018-05-07T07:16:12.811Z,1007.2
2018-05-07T07:17:14.193Z,1007.2
2018-05-07T07:18:15.578Z,1007.3
2018-05-07T07:19:16.962Z,1007.3
2018-05-07T07:20:18.342Z,1007.3
2018-05-07T07:21:19.716Z,1007.4
2018-05-07T07:22:21.106Z,1007.2
2018-05-07T07:23:22.494Z,1007.3
2018-05-07T07:24:23.877Z,1007.4
2018-05-07T07:25:25.243Z,1007.4
2018-05-07T07:26:26.622Z,1007.3
2018-05-07T07:27:28.002Z,1007.4
2018-05-07T07:28:29.384Z,1007.5
2018-05-07T07:29:30.763Z,1007.4
2018-05-07T07:30:32.139Z,1007.5
2018-05-07T07:31:33.515Z,1007.5
2018-05-07T07:32:34.923Z,1007.5
2018-05-07T07:33:36.304Z,1007.6
2018-05-07T07:34:37.676Z,1007.7
2018-05-07T07:35:39.382Z,1007.6
2018-05-07T07:36:40.754Z,1007.5
2018-05-07T07:37:42.131Z,1007.8
2018-05-07T07:38:43.512Z,1007.7
2018-05-07T07:39:44.884Z,1007.8
2018-05-07T07:40:46.266Z,1007.7
2018-05-07T07:41:47.637Z,1007.8
2018-05-07T07:42:49.019Z,1008.1
2018-05-07T07:43:50.396Z,1007.9
2018-05-07T07:44:51.778Z,1008.0
2018-05-07T07:45:53.156Z,1008.2
2018-05-07T07:46:54.533Z,1008.1
2018-05-07T07:47:55.911Z,1008.1
2018-05-07T07:48:57.291Z,1008.2
2018-05-07T07:49:58.668Z,1008.1
2018-05-07T07:51:00.044Z,1008.2
2018-05-07T07:52:01.423Z,1008.2
2018-05-07T07:53:02.822Z,1008.3
2018-05-07T07:54:04.209Z,1008.5
2018-05-07T07:55:05.582Z,1008.5
2018-05-07T07:56:06.959Z,1008.6
2018-05-07T07:57:08.342Z,1008.7
2018-05-07T07:58:09.744Z,1008.8
2018-05-07T07:59:11.114Z,1008.7
2018-05-07T08:00:12.507Z,1008.7
2018-05-07T08:01:13.888Z,1008.8
2018-05-07T08:02:15.265Z,1008.8
2018-05-07T08:03:16.647Z,1008.7
2018-05-07T08:04:18.076Z,1008.7
2018-05-07T08:05:19.445Z,1008.7
2018-05-07T08:06:20.838Z,1008.5
2018-05-07T08:07:22.218Z,1008.6
2018-05-07T08:08:23.597Z,1008.7
2018-05-07T08:09:25.010Z,1008.8
2018-05-07T08:10:26.370Z,1008.7
2018-05-07T08:11:27.740Z,1008.7
2018-05-07T08:12:29.122Z,1008.6
2018-05-07T08:13:30.503Z,1008.8
2018-05-07T08:14:31.949Z,1008.8
2018-05-07T08:15:33.210Z,1008.7
2018-05-07T08:16:34.607Z,1008.7
2018-05-07T08:17:35.987Z,1008.7
2018-05-07T08:18:37.362Z,1008.6
2018-05-07T08:19:38.735Z,1008.6
2018-05-07T08:20:40.131Z,1008.6
2018-05-07T08:21:41.500Z,1008.6
2018-05-07T08:22:42.875Z,1008.6
2018-05-07T08:23:44.259Z,1008.4
2018-05-07T08:24:45.678Z,1008.6
2018-05-07T08:25:47.050Z,1008.3
2018-05-07T08:26:48.443Z,1008.3
2018-05-07T08:27:49.807Z,1008.2
2018-05-07T08:28:51.201Z,1008.4
2018-05-07T08:29:52.586Z,1008.4
2018-05-07T08:30:53.962Z,1008.4
2018-05-07T08:31:55.343Z,1008.4
2018-05-07T08:32:56.720Z,1008.5
2018-05-07T08:33:58.103Z,1008.6
2018-05-07T08:34:59.488Z,1008.8
2018-05-07T08:36:00.882Z,1008.8
2018-05-07T08:37:02.240Z,1008.9
2018-05-07T08:38:03.646Z,1009.2
2018-05-07T08:39:05.025Z,1009.3
2018-05-07T08:40:06.409Z,1009.2
2018-05-07T08:41:07.799Z,1009.3
2018-05-07T08:42:09.176Z,1009.3
2018-05-07T08:43:10.560Z,1009.3
2018-05-07T08:44:11.927Z,1009.4
2018-05-07T08:45:13.317Z,1009.4
2018-05-07T08:46:14.690Z,1009.3
2018-05-07T08:47:16.088Z,1009.5
2018-05-07T08:48:17.477Z,1009.6
2018-05-07T08:49:18.847Z,1009.6
2018-05-07T08:50:20.229Z,1009.5
2018-05-07T08:51:21.628Z,1009.5
2018-05-07T08:52:23.040Z,1009.5
2018-05-07T08:53:24.413Z,1009.3
2018-05-07T08:54:25.794Z,1009.1
2018-05-07T08:55:27.178Z,1009.2
2018-05-07T08:56:28.556Z,1009.2
2018-05-07T08:57:29.934Z,1009.0
2018-05-07T08:58:31.328Z,1008.9
2018-05-07T08:59:32.717Z,1009.0
2018-05-07T09:00:34.132Z,1008.8
2018-05-07T09:01:36.254Z,1008.7
2018-05-07T09:02:37.645Z,1008.6
2018-05-07T09:03:39.029Z,1008.4
2018-05-07T09:04:40.398Z,1008.5
2018-05-07T09:05:41.789Z,1008.3
2018-05-07T09:06:43.192Z,1008.2
2018-05-07T09:07:44.558Z,1008.1
2018-05-07T09:08:45.943Z,1007.7
2018-05-07T09:09:47.330Z,1007.4
2018-05-07T09:10:48.728Z,1007.5
2018-05-07T09:11:50.122Z,1007.3
2018-05-07T09:12:51.493Z,1007.4
2018-05-07T09:13:52.895Z,1007.3
2018-05-07T09:14:54.266Z,1007.3
2018-05-07T09:15:55.655Z,1007.1
2018-05-07T09:16:57.047Z,1007.1
2018-05-07T09:17:58.433Z,1007.0
2018-05-07T09:18:59.828Z,1006.9
2018-05-07T09:20:01.214Z,1006.8
2018-05-07T09:21:02.590Z,1006.8
2018-05-07T09:22:03.973Z,1006.8
2018-05-07T09:23:05.382Z,1006.8
2018-05-07T09:24:06.838Z,1006.9
2018-05-07T09:25:08.229Z,1006.7
2018-05-07T09:26:09.615Z,1006.7
2018-05-07T09:27:11.029Z,1006.6
2018-05-07T09:28:12.408Z,1006.6
2018-05-07T09:29:13.790Z,1006.6
2018-05-07T09:30:15.183Z,1006.7
2018-05-07T09:31:16.567Z,1006.7
2018-05-07T09:32:17.946Z,1006.8
2018-05-07T09:33:19.350Z,1006.7
2018-05-07T09:34:20.727Z,1006.5
2018-05-07T09:35:22.123Z,1006.6
2018-05-07T09:36:23.498Z,1006.6
2018-05-07T09:37:24.869Z,1006.6
2018-05-07T09:38:26.254Z,1006.6
2018-05-07T09:39:28.413Z,1006.6
2018-05-07T09:40:29.806Z,1006.5
2018-05-07T09:41:31.186Z,1006.6
2018-05-07T09:42:32.578Z,1006.5
2018-05-07T09:43:33.956Z,1006.4
2018-05-07T09:44:35.351Z,1006.5
2018-05-07T09:45:36.764Z,1006.4
2018-05-07T09:46:38.162Z,1006.4
2018-05-07T09:47:39.559Z,1006.4
2018-05-07T09:48:40.941Z,1006.3
2018-05-07T09:49:42.342Z,1006.3
2018-05-07T09:50:43.725Z,1006.3
2018-05-07T09:51:45.129Z,1006.4
2018-05-07T09:52:46.507Z,1006.5
2018-05-07T09:53:47.898Z,1006.4
2018-05-07T09:54:49.277Z,1006.4
2018-05-07T09:55:50.661Z,1006.2
2018-05-07T09:56:52.060Z,1006.3
2018-05-07T09:57:53.428Z,1006.1
2018-05-07T09:58:54.808Z,1006.2
2018-05-07T09:59:56.206Z,1006.2
2018-05-07T10:00:57.627Z,1006.1
2018-05-07T10:01:59.009Z,1006.2
2018-05-07T10:03:00.392Z,1006.3
2018-05-07T10:04:01.777Z,1006.3
2018-05-07T10:05:03.663Z,1006.0
2018-05-07T10:06:05.051Z,1006.2
2018-05-07T10:07:06.437Z,1006.2
2018-05-07T10:08:07.909Z,1006.1
2018-05-07T10:09:09.614Z,1006.0
2018-05-07T10:10:11.001Z,1006.0
2018-05-07T10:11:12.391Z,1006.1
2018-05-07T10:12:13.781Z,1006.2
2018-05-07T10:13:15.166Z,1005.9
2018-05-07T10:14:16.616Z,1005.9
2018-05-07T10:15:18.004Z,1005.9
2018-05-07T10:16:19.406Z,1006.0
2018-05-07T10:17:20.809Z,1006.0
2018-05-07T10:18:22.174Z,1005.9
2018-05-07T10:19:23.614Z,1005.9
2018-05-07T10:20:24.997Z,1005.9
2018-05-07T10:21:26.384Z,1006.0
2018-05-07T10:22:27.778Z,1005.9
2018-05-07T10:23:29.160Z,1005.9
2018-05-07T10:24:30.543Z,1005.8
2018-05-07T10:25:31.926Z,1005.9
2018-05-07T10:26:33.318Z,1005.8
2018-05-07T10:27:34.702Z,1005.9
2018-05-07T10:28:36.086Z,1005.8
2018-05-07T10:29:37.604Z,1005.8
2018-05-07T10:30:39.016Z,1005.8
2018-05-07T10:31:40.409Z,1005.8
2018-05-07T10:32:41.807Z,1005.8
2018-05-07T10:33:43.193Z,1005.8
2018-05-07T10:34:44.694Z,1005.8
2018-05-07T10:35:46.086Z,1005.8
2018-05-07T10:36:47.474Z,1005.7
2018-05-07T10:37:48.857Z,1005.8
2018-05-07T10:38:50.248Z,1005.8
2018-05-07T10:39:51.646Z,1005.8
2018-05-07T10:40:53.028Z,1005.8
2018-05-07T10:41:54.433Z,1005.6
2018-05-07T10:42:55.816Z,1005.8
2018-05-07T10:43:57.211Z,1005.6
2018-05-07T10:44:58.598Z,1005.6
2018-05-07T10:46:00.035Z,1005.6
2018-05-07T10:47:01.424Z,1005.5
2018-05-07T10:48:02.873Z,1005.7
2018-05-07T10:49:04.313Z,1005.6
2018-05-07T10:50:05.644Z,1005.7
2018-05-07T10:51:07.034Z,1005.6
2018-05-07T10:52:08.418Z,1005.5
2018-05-07T10:53:09.900Z,1005.5
2018-05-07T10:54:11.299Z,1005.5
2018-05-07T10:55:12.688Z,1005.6
2018-05-07T10:56:14.150Z,1005.6
2018-05-07T10:57:15.415Z,1005.5
2018-05-07T10:58:16.803Z,1005.5
2018-05-07T10:59:18.193Z,1005.4
2018-05-07T11:00:19.582Z,1005.4
2018-05-07T11:01:20.973Z,1005.3
2018-05-07T11:02:22.364Z,1005.3
2018-05-07T11:03:23.752Z,1005.3
2018-05-07T11:04:25.196Z,1005.3
2018-05-07T11:05:26.597Z,1005.3
2018-05-07T11:06:27.984Z,1005.5
2018-05-07T11:07:29.417Z,1005.4
2018-05-07T11:08:30.752Z,1005.4
2018-05-07T11:09:32.138Z,1005.2
2018-05-07T11:10:33.556Z,1005.2
2018-05-07T11:11:34.932Z,1005.2
2018-05-07T11:12:36.335Z,1005.1
2018-05-07T11:13:37.723Z,1004.9
2018-05-07T11:14:39.108Z,1005.1
2018-05-07T11:15:40.499Z,1005.3
2018-05-07T11:16:41.881Z,1005.1
2018-05-07T11:17:43.274Z,1005.2
2018-05-07T11:18:44.673Z,1005.1
2018-05-07T11:19:46.086Z,1005.2
2018-05-07T11:20:47.461Z,1005.3
2018-05-07T11:21:48.853Z,1005.0
2018-05-07T11:22:50.236Z,1005.2
2018-05-07T11:23:51.623Z,1005.2
2018-05-07T11:24:53.054Z,1005.1
2018-05-07T11:25:54.444Z,1005.1
2018-05-07T11:26:55.841Z,1005.1
2018-05-07T11:27:57.233Z,1005.1
2018-05-07T11:28:58.614Z,1004.9
2018-05-07T11:30:00.012Z,1004.9
2018-05-07T11:31:01.386Z,1004.9
2018-05-07T11:32:02.772Z,1005.0
2018-05-07T11:33:04.170Z,1005.1
2018-05-07T11:34:06.338Z,1005.0
2018-05-07T11:35:07.720Z,1005.1
2018-05-07T11:36:09.104Z,1005.0
2018-05-07T11:37:10.525Z,1005.0
2018-05-07T11:38:11.986Z,1004.9
2018-05-07T11:39:13.470Z,1004.9
2018-05-07T11:40:14.759Z,1004.9
2018-05-07T11:41:16.150Z,1004.8
2018-05-07T11:42:17.556Z,1004.9
2018-05-07T11:43:18.927Z,1004.9
2018-05-07T11:44:20.317Z,1004.8
2018-05-07T11:45:21.701Z,1004.8
2018-05-07T11:46:23.104Z,1004.7
2018-05-07T11:47:24.526Z,1004.8
2018-05-07T11:48:25.874Z,1004.8
2018-05-07T11:49:27.259Z,1004.7
2018-05-07T11:50:28.645Z,1004.7
2018-05-07T11:51:30.037Z,1005.1
2018-05-07T11:52:31.420Z,1005.0
2018-05-07T11:53:32.812Z,1004.9
2018-05-07T11:54:34.234Z,1004.9
2018-05-07T11:55:35.616Z,1004.8
2018-05-07T11:56:37.009Z,1004.9
2018-05-07T11:57:38.399Z,1004.8
2018-05-07T11:58:39.773Z,1004.8
2018-05-07T11:59:41.157Z,1004.9
2018-05-07T12:00:42.554Z,1004.9
2018-05-07T12:01:43.952Z,1004.6
2018-05-07T12:02:45.392Z,1004.7
2018-05-07T12:03:46.722Z,1004.5
2018-05-07T12:04:48.106Z,1004.5
2018-05-07T12:05:49.488Z,1004.6
2018-05-07T12:06:50.905Z,1004.5
2018-05-07T12:07:52.291Z,1004.4
2018-05-07T12:08:53.678Z,1004.5
2018-05-07T12:09:55.064Z,1004.7
2018-05-07T12:10:56.452Z,1004.8
2018-05-07T12:11:57.859Z,1004.6
2018-05-07T12:12:59.247Z,1004.7
2018-05-07T12:14:00.638Z,1004.5
2018-05-07T12:15:02.083Z,1004.6
2018-05-07T12:16:03.483Z,1004.5
2018-05-07T12:17:04.859Z,1004.6
2018-05-07T12:18:06.251Z,1004.5
2018-05-07T12:19:07.633Z,1004.5
2018-05-07T12:20:09.027Z,1004.6
2018-05-07T12:21:10.415Z,1004.6
2018-05-07T12:22:11.811Z,1004.6
2018-05-07T12:23:13.203Z,1004.5
2018-05-07T12:24:14.591Z,1004.5
2018-05-07T12:25:15.980Z,1004.4
2018-05-07T12:26:17.377Z,1004.4
2018-05-07T12:27:18.756Z,1004.5
2018-05-07T12:28:20.139Z,1004.6
2018-05-07T12:29:21.522Z,1004.3
2018-05-07T12:30:22.925Z,1004.5
2018-05-07T12:31:24.321Z,1004.5
2018-05-07T12:32:25.706Z,1004.6
2018-05-07T12:33:27.087Z,1004.5
2018-05-07T12:34:28.477Z,1004.4
2018-05-07T12:35:30.020Z,1004.5
2018-05-07T12:36:31.424Z,1004.4
2018-05-07T12:37:32.823Z,1004.4
2018-05-07T12:38:34.215Z,1004.5
2018-05-07T12:39:35.595Z,1004.4
2018-05-07T12:40:36.983Z,1004.2
2018-05-07T12:41:38.370Z,1004.2
2018-05-07T12:42:39.762Z,1004.2
2018-05-07T12:43:41.154Z,1004.2
2018-05-07T12:44:42.565Z,1004.1
2018-05-07T12:45:43.975Z,1004.2